Terminal Aerodrome Forecast
Issued by NWS Sioux Falls, SD

Home | Current Version | Previous Version | Graphics & Text | Print | Product List | Glossary On
Versions: 1 2 3 4 5 6 7 8 9 10 11 12 13 14 15 16 17 18 19 20 21 22 23 24 25 26 27
000
FTUS43 KFSD 251000 AAA
TAFFSD
TAF AMD
KFSD 251005Z 2510/2606 13012KT P6SM VCSH SCT100 BKN200
     FM251100 15012KT P6SM SCT100 BKN200
     FM251400 16007KT P6SM BKN012
     FM251700 32010KT P6SM BKN025
     FM251900 33010KT P6SM BKN035
     FM260100 34005KT P6SM FEW035=

USA.gov is the U.S. government's official web portal to all federal, state and local government web resources and services.